Time;durP1;ratioP1;P1;durP2;ratioP2;P2;SDS_P1;SDS_P2;PMS_P1;PMS_P2;Temp;Humidity;BMP_temperature;BMP_pressure;BME280_temperature;BME280_humidity;BME280_pressure;Samples;Min_cycle;Max_cycle;Signal;HPM_P1;HPM_P2
2023/06/16 00:02:43;;;;;;;2.70;2.00;;;;;;;24.08;31.74;101754.69;16114597;19;130810;-48
2023/06/16 00:08:09;;;;;;;3.95;2.30;;;;;;;24.09;31.74;101752.75;16107720;19;131566;-48
2023/06/16 00:13:30;;;;;;;;;;;;;;;24.05;31.92;101752.44;16117937;19;129633;-51
2023/06/16 00:18:57;;;;;;;2.40;1.95;;;;;;;24.06;31.73;101747.69;16114627;19;135803;-46
2023/06/16 00:24:20;;;;;;;4.20;2.10;;;;;;;24.05;32.18;101745.97;16108882;19;130517;-50
2023/06/16 00:29:42;;;;;;;3.85;2.05;;;;;;;24.04;31.61;101744.28;16111578;19;129835;-49
2023/06/16 00:35:04;;;;;;;3.08;1.80;;;;;;;24.03;31.98;101746.25;16115318;19;130609;-47
2023/06/16 00:40:26;;;;;;;2.92;2.55;;;;;;;24.03;31.86;101745.41;16107083;19;129531;-53
2023/06/16 00:45:49;;;;;;;4.18;2.10;;;;;;;24.02;32.01;101738.97;16114758;19;130074;-49
2023/06/16 00:51:11;;;;;;;11.57;2.33;;;;;;;24.03;31.91;101739.81;16113644;19;130861;-48
2023/06/16 00:56:36;;;;;;;5.35;2.08;;;;;;;24.02;32.04;101735.31;16108085;19;129689;-51
2023/06/16 01:01:58;;;;;;;3.25;2.00;;;;;;;24.00;32.11;101734.78;16113475;19;131112;-46
2023/06/16 01:07:30;;;;;;;2.63;1.98;;;;;;;24.01;32.08;101736.44;16098795;19;130894;-52
2023/06/16 01:13:02;;;;;;;4.68;2.10;;;;;;;24.01;32.09;101728.03;16101203;19;134955;-50
2023/06/16 01:18:27;;;;;;;4.63;2.08;;;;;;;23.99;32.00;101725.53;16105093;19;129771;-54
2023/06/16 01:24:11;;;;;;;2.83;1.92;;;;;;;24.00;32.02;101713.25;16110678;19;131227;-53
2023/06/16 01:29:36;;;;;;;5.10;2.08;;;;;;;23.98;32.34;101715.44;16098895;19;131601;-54
2023/06/16 01:34:59;;;;;;;3.47;1.83;;;;;;;23.97;32.08;101709.03;16105525;19;131160;-52
2023/06/16 01:40:23;;;;;;;3.30;2.05;;;;;;;23.99;32.47;101710.72;16104963;19;130476;-49
2023/06/16 01:45:49;;;;;;;6.53;2.13;;;;;;;23.97;32.25;101706.25;16106728;19;129691;-48
2023/06/16 01:51:12;;;;;;;2.33;1.70;;;;;;;23.95;31.94;101705.66;16103971;19;131471;-49
2023/06/16 01:56:34;;;;;;;4.28;2.10;;;;;;;23.94;32.11;101715.16;16107012;19;131362;-50
2023/06/16 02:02:04;;;;;;;2.25;1.98;;;;;;;23.94;31.87;101703.09;16105655;19;129894;-50
2023/06/16 02:07:37;;;;;;;4.78;2.20;;;;;;;23.94;32.43;101708.69;16106374;19;130542;-50
2023/06/16 02:13:05;;;;;;;3.65;2.03;;;;;;;23.92;31.90;101708.13;16110335;19;130122;-49
2023/06/16 02:18:28;;;;;;;2.25;1.90;;;;;;;23.90;32.30;101711.19;16105765;19;130866;-51
2023/06/16 02:23:50;;;;;;;2.28;1.90;;;;;;;23.90;32.40;101710.34;16105865;19;130841;-48
2023/06/16 02:29:12;;;;;;;3.47;2.25;;;;;;;23.89;32.23;101705.88;16116028;19;132647;-47
2023/06/16 02:34:34;;;;;;;5.80;2.35;;;;;;;23.88;32.20;101709.75;16116714;19;129824;-50
2023/06/16 02:39:56;;;;;;;2.45;1.70;;;;;;;23.89;31.87;101711.44;16121336;19;131199;-51
2023/06/16 02:45:18;;;;;;;3.80;2.17;;;;;;;23.87;32.18;101714.53;16120175;19;130851;-47
2023/06/16 02:50:40;;;;;;;4.25;2.17;;;;;;;23.86;32.33;101711.97;16116987;19;130311;-48
2023/06/16 02:56:02;;;;;;;3.03;2.10;;;;;;;23.86;32.34;101707.25;16114450;19;130403;-53
2023/06/16 03:01:28;;;;;;;4.55;2.13;;;;;;;23.85;31.93;101710.28;16111666;19;132383;-52
2023/06/16 03:06:51;;;;;;;3.20;2.47;;;;;;;23.84;32.20;101700.22;16115547;19;130667;-49
2023/06/16 03:12:13;;;;;;;3.45;2.17;;;;;;;23.83;32.69;101710.56;16119691;19;130788;-48
2023/06/16 03:17:36;;;;;;;4.30;2.38;;;;;;;23.82;32.31;101715.28;16118550;19;130165;-50
2023/06/16 03:22:58;;;;;;;2.78;2.17;;;;;;;23.82;32.52;101720.03;16117744;19;129706;-48
2023/06/16 03:28:20;;;;;;;3.60;2.00;;;;;;;23.82;32.05;101722.84;16112228;19;131195;-52
2023/06/16 03:33:42;;;;;;;2.70;1.98;;;;;;;23.80;32.36;101723.13;16115389;19;130099;-48
2023/06/16 03:39:05;;;;;;;4.85;2.35;;;;;;;23.79;32.46;101727.00;16117326;19;130133;-52
2023/06/16 03:44:27;;;;;;;4.30;2.25;;;;;;;23.79;32.35;101727.00;16115817;19;133919;-49
2023/06/16 03:49:49;;;;;;;3.83;1.95;;;;;;;23.78;32.63;101733.69;16117543;19;131187;-51
2023/06/16 03:55:11;;;;;;;3.83;1.95;;;;;;;23.78;32.11;101735.63;16116215;19;131160;-48
2023/06/16 04:00:33;;;;;;;3.28;2.08;;;;;;;23.77;32.30;101736.72;16119969;19;129564;-46
2023/06/16 04:05:55;;;;;;;3.25;2.10;;;;;;;23.76;32.43;101747.09;16115140;19;129496;-47
2023/06/16 04:11:17;;;;;;;4.63;2.00;;;;;;;23.75;32.51;101750.16;16113481;19;131273;-47
2023/06/16 04:16:42;;;;;;;5.85;2.00;;;;;;;23.75;32.31;101750.16;16116785;19;131167;-49
2023/06/16 04:22:04;;;;;;;2.95;1.85;;;;;;;23.74;32.58;101748.47;16113772;19;129739;-49
2023/06/16 04:27:28;;;;;;;5.28;2.30;;;;;;;23.73;32.62;101760.75;16113560;19;130765;-51
2023/06/16 04:32:50;;;;;;;2.42;2.00;;;;;;;23.72;32.83;101762.66;16115040;19;129688;-51
2023/06/16 04:38:13;;;;;;;2.90;2.20;;;;;;;23.73;32.38;101763.53;16114046;19;132997;-48
2023/06/16 04:43:35;;;;;;;4.97;2.88;;;;;;;23.72;32.89;101767.44;16114558;19;130977;-47
2023/06/16 04:48:57;;;;;;;3.60;2.22;;;;;;;23.72;32.45;101761.84;16112571;19;130911;-51
2023/06/16 04:54:19;;;;;;;2.90;2.20;;;;;;;23.71;32.59;101760.16;16113161;19;130671;-50
2023/06/16 04:59:41;;;;;;;3.15;2.40;;;;;;;23.71;32.54;101765.75;16112290;19;131411;-52
2023/06/16 05:05:05;;;;;;;4.85;2.63;;;;;;;23.71;32.26;101768.53;16110954;19;129338;-48
2023/06/16 05:10:27;;;;;;;5.80;2.80;;;;;;;23.72;32.80;101770.22;16109727;19;131753;-52
2023/06/16 05:15:49;;;;;;;4.43;2.50;;;;;;;23.71;32.45;101774.13;16111418;19;130647;-46
2023/06/16 05:21:10;;;;;;;6.53;3.63;;;;;;;23.72;32.54;101770.22;16109795;19;129711;-48
2023/06/16 05:26:32;;;;;;;5.80;3.10;;;;;;;23.72;32.53;101778.59;16109752;19;132376;-48
2023/06/16 05:31:54;;;;;;;4.03;3.28;;;;;;;23.70;32.51;101767.66;16111050;19;129988;-49
2023/06/16 05:37:18;;;;;;;4.63;3.20;;;;;;;23.71;32.88;101771.31;16113048;19;129787;-47
2023/06/16 05:42:39;;;;;;;3.17;2.55;;;;;;;23.71;32.52;101772.16;16114046;19;129420;-49
2023/06/16 05:48:01;;;;;;;4.20;2.80;;;;;;;23.69;32.71;101774.38;16107963;19;129432;-48
2023/06/16 05:53:24;;;;;;;5.20;3.22;;;;;;;23.70;32.50;101766.84;16112427;19;129556;-51
2023/06/16 05:58:45;;;;;;;4.05;3.20;;;;;;;23.69;32.81;101768.81;16109359;19;129704;-49
2023/06/16 06:04:10;;;;;;;4.50;2.75;;;;;;;23.71;32.37;101774.13;16110919;19;134357;-50
2023/06/16 06:09:32;;;;;;;3.55;2.88;;;;;;;23.70;32.33;101778.00;16113566;19;133681;-48
2023/06/16 06:14:54;;;;;;;5.63;3.22;;;;;;;23.71;32.56;101782.50;16110391;19;130677;-49
2023/06/16 06:20:16;;;;;;;3.63;3.00;;;;;;;23.71;32.63;101786.13;16113509;19;129555;-51
2023/06/16 06:25:40;;;;;;;3.63;2.90;;;;;;;23.72;32.58;101795.38;16106323;19;131044;-52
2023/06/16 06:31:02;;;;;;;4.63;3.28;;;;;;;23.72;32.83;101795.38;16107649;19;131366;-50
2023/06/16 06:36:27;;;;;;;6.03;2.95;;;;;;;23.72;32.53;101801.78;16111137;19;130489;-48
2023/06/16 06:41:48;;;;;;;5.53;3.17;;;;;;;23.71;32.67;101799.25;16112852;19;129818;-51
2023/06/16 06:47:10;;;;;;;6.57;3.67;;;;;;;23.72;32.47;101800.94;16111018;19;130193;-48
2023/06/16 06:52:32;;;;;;;3.83;3.20;;;;;;;23.72;32.71;101806.53;16112050;19;130618;-50
2023/06/16 06:57:54;;;;;;;6.68;3.03;;;;;;;23.72;32.46;101803.75;16107085;19;130628;-48
2023/06/16 07:03:16;;;;;;;5.82;3.28;;;;;;;23.72;32.80;101806.53;16108842;19;130870;-49
2023/06/16 07:08:38;;;;;;;7.05;3.63;;;;;;;23.72;32.50;101800.94;16107240;19;129824;-52
2023/06/16 07:14:01;;;;;;;14.02;4.35;;;;;;;23.54;32.24;101805.72;16105251;19;130683;-48
2023/06/16 07:19:27;;;;;;;11.57;4.45;;;;;;;23.43;32.15;101810.34;16120944;19;130182;-51
2023/06/16 07:24:49;;;;;;;6.68;4.18;;;;;;;23.31;31.69;101804.00;16117490;19;130836;-49
2023/06/16 07:30:12;;;;;;;11.68;4.30;;;;;;;23.23;31.82;101805.28;16120964;19;131218;-49
2023/06/16 07:35:33;;;;;;;11.68;4.03;;;;;;;23.19;31.88;101804.09;16118594;19;131315;-49
2023/06/16 07:40:55;;;;;;;7.80;4.05;;;;;;;23.18;31.91;101814.44;16110450;19;129777;-50
2023/06/16 07:46:17;;;;;;;12.55;4.20;;;;;;;23.20;31.98;101816.97;16116063;19;130355;-52
2023/06/16 07:51:40;;;;;;;6.70;3.65;;;;;;;23.22;31.99;101809.19;16117868;19;130280;-50
2023/06/16 07:57:02;;;;;;;11.18;4.38;;;;;;;23.19;31.73;101806.91;16113817;19;130772;-49
2023/06/16 08:02:24;;;;;;;7.80;4.15;;;;;;;23.17;31.29;101801.59;16116747;19;129729;-53
2023/06/16 08:07:46;;;;;;;14.80;4.30;;;;;;;23.26;31.25;101799.22;16120404;19;130350;-52
2023/06/16 08:13:08;;;;;;;9.30;4.07;;;;;;;23.40;31.84;101805.25;16120149;19;131071;-53
2023/06/16 08:18:31;;;;;;;6.68;3.90;;;;;;;23.53;31.85;101808.78;16121841;19;129703;-47
2023/06/16 08:23:53;;;;;;;9.13;4.10;;;;;;;23.61;31.55;101798.03;16113779;19;130593;-49
2023/06/16 08:29:15;;;;;;;8.57;4.10;;;;;;;23.68;31.26;101806.22;16114717;19;130601;-46
2023/06/16 08:34:37;;;;;;;10.88;3.65;;;;;;;23.73;31.19;101805.44;16117211;19;130995;-51
2023/06/16 08:39:59;;;;;;;10.25;4.43;;;;;;;23.78;31.23;101802.69;16112687;19;129523;-46
2023/06/16 08:45:22;;;;;;;7.03;3.70;;;;;;;23.83;31.27;101791.59;16115326;19;130845;-47
2023/06/16 08:50:46;;;;;;;10.57;3.90;;;;;;;23.85;31.15;101799.69;16111113;19;130918;-49
2023/06/16 08:56:10;;;;;;;11.40;4.20;;;;;;;23.89;31.52;101796.13;16116146;19;134473;-49
2023/06/16 09:01:33;;;;;;;8.70;4.07;;;;;;;23.90;31.11;101797.81;16111139;19;130857;-51
2023/06/16 09:06:56;;;;;;;7.63;3.80;;;;;;;23.94;31.17;101793.41;16112512;19;130255;-53
2023/06/16 09:12:18;;;;;;;9.70;3.70;;;;;;;23.94;30.88;101796.19;16115040;19;130389;-49
2023/06/16 09:17:40;;;;;;;5.80;3.63;;;;;;;23.95;30.75;101800.69;16107253;19;131016;-50
2023/06/16 09:23:04;;;;;;;9.80;3.22;;;;;;;23.96;30.64;101799.56;16110207;19;129759;-48
2023/06/16 09:28:34;;;;;;;5.57;3.25;;;;;;;24.00;30.43;101796.25;16112352;19;129793;-50
2023/06/16 09:34:06;;;;;;;7.47;3.35;;;;;;;24.02;30.50;101802.41;16109220;19;129673;-50
2023/06/16 09:39:28;;;;;;;5.90;3.38;;;;;;;24.02;30.67;101800.47;16113103;19;131627;-49
2023/06/16 09:44:50;;;;;;;13.27;3.80;;;;;;;24.02;30.86;101794.88;16109245;19;131169;-45
2023/06/16 09:50:17;;;;;;;10.55;4.13;;;;;;;24.03;30.85;101785.38;16110980;19;129378;-49
2023/06/16 09:55:41;;;;;;;9.65;3.70;;;;;;;24.00;31.10;101785.91;16108196;19;130638;-48
2023/06/16 10:01:04;;;;;;;8.27;3.47;;;;;;;24.00;31.26;101785.09;16109812;19;130351;-47
2023/06/16 10:06:28;;;;;;;8.77;3.35;;;;;;;23.97;31.20;101783.63;16107435;19;130335;-50
2023/06/16 10:11:50;;;;;;;15.57;3.77;;;;;;;23.96;31.42;101776.34;16112085;19;129723;-47
2023/06/16 10:17:16;;;;;;;10.40;3.42;;;;;;;23.95;31.29;101774.66;16109804;19;129785;-49
2023/06/16 10:22:38;;;;;;;5.45;3.03;;;;;;;23.94;31.28;101765.44;16107390;19;130428;-49
2023/06/16 10:28:05;;;;;;;6.78;3.53;;;;;;;23.94;31.41;101765.44;16105853;19;129367;-46
2023/06/16 10:33:28;;;;;;;8.85;3.50;;;;;;;23.94;31.78;101756.19;16108638;19;130405;-49
2023/06/16 10:39:01;;;;;;;9.38;4.00;;;;;;;23.93;31.31;101755.38;16104208;19;130986;-52
2023/06/16 10:44:31;;;;;;;5.82;3.10;;;;;;;23.92;31.26;101762.06;16108370;19;130786;-50
2023/06/16 10:49:55;;;;;;;4.60;3.38;;;;;;;23.91;31.03;101754.78;16115838;19;136925;-51
2023/06/16 10:55:28;;;;;;;11.63;3.43;;;;;;;23.92;31.08;101758.44;16118007;19;130198;-48
2023/06/16 11:00:57;;;;;;;6.32;3.30;;;;;;;23.91;31.09;101751.16;16122050;19;129992;-47
2023/06/16 11:06:19;;;;;;;5.75;3.28;;;;;;;23.90;30.90;101747.50;16121287;19;130829;-49
2023/06/16 11:11:41;;;;;;;5.65;2.88;;;;;;;23.90;31.20;101744.72;16117077;19;130588;-49
2023/06/16 11:17:04;;;;;;;5.15;2.85;;;;;;;23.92;31.21;101756.47;16119386;19;131799;-48
2023/06/16 11:22:33;;;;;;;9.20;3.33;;;;;;;23.92;31.21;101739.72;16122332;19;130453;-49
2023/06/16 11:27:55;;;;;;;4.80;3.00;;;;;;;23.91;31.40;101732.44;16119678;19;131047;-45
2023/06/16 11:33:19;;;;;;;8.60;3.55;;;;;;;23.92;31.38;101734.13;16118459;19;129625;-49
2023/06/16 11:38:43;;;;;;;5.95;3.33;;;;;;;23.92;31.28;101727.69;16118706;19;129355;-51
2023/06/16 11:44:12;;;;;;;7.00;3.10;;;;;;;23.93;31.43;101730.22;16119427;19;129302;-47
2023/06/16 11:49:37;;;;;;;5.70;2.88;;;;;;;23.96;31.64;101726.91;16120370;19;129745;-51
2023/06/16 11:55:00;;;;;;;7.15;3.15;;;;;;;24.05;30.20;101710.50;16116908;19;130374;-49
2023/06/16 12:00:23;;;;;;;21.63;3.90;;;;;;;24.16;29.92;101710.59;16114076;19;131284;-48
2023/06/16 12:05:46;;;;;;;11.10;3.40;;;;;;;24.21;29.99;101705.91;16117526;19;130434;-50
2023/06/16 12:11:09;;;;;;;7.82;3.42;;;;;;;24.26;29.85;101700.38;16116703;19;134572;-53
2023/06/16 12:16:31;;;;;;;10.77;3.25;;;;;;;24.27;29.97;101706.81;16120830;19;129520;-48
2023/06/16 12:22:00;;;;;;;7.82;3.20;;;;;;;24.30;30.22;101697.91;16114006;19;131270;-49
2023/06/16 12:27:24;;;;;;;5.93;2.58;;;;;;;24.34;29.64;101692.63;16117771;19;130442;-52
2023/06/16 12:32:46;;;;;;;6.72;3.00;;;;;;;24.33;29.75;101688.13;16112736;19;130070;-48
2023/06/16 12:38:08;;;;;;;5.43;3.30;;;;;;;24.32;30.15;101690.06;16119824;19;133787;-50
2023/06/16 12:43:33;;;;;;;6.85;2.95;;;;;;;24.32;30.24;101692.03;16113571;19;129638;-48
2023/06/16 12:48:55;;;;;;;8.32;2.55;;;;;;;24.32;30.25;101687.28;16112709;19;129832;-51
2023/06/16 12:54:17;;;;;;;4.55;3.13;;;;;;;24.32;30.50;101686.44;16115717;19;133436;-46
2023/06/16 12:59:39;;;;;;;6.63;2.80;;;;;;;24.34;30.75;101681.44;16115533;19;131227;-49
2023/06/16 13:05:01;;;;;;;6.25;2.97;;;;;;;24.35;30.72;101671.94;16114734;19;129638;-52
2023/06/16 13:10:24;;;;;;;4.55;2.67;;;;;;;24.40;30.85;101669.16;16113989;19;129498;-49
2023/06/16 13:15:47;;;;;;;4.82;2.72;;;;;;;24.43;30.83;101663.03;16109448;19;130657;-48
2023/06/16 13:21:09;;;;;;;6.38;2.55;;;;;;;24.46;30.82;101656.06;16110457;19;129537;-52
2023/06/16 13:26:31;;;;;;;7.07;2.80;;;;;;;24.51;30.49;101656.94;16111434;19;131994;-51
2023/06/16 13:31:54;;;;;;;6.20;2.67;;;;;;;24.54;30.35;101649.97;16107702;19;130322;-49
2023/06/16 13:37:16;;;;;;;4.88;2.80;;;;;;;24.59;30.59;101641.59;16110197;19;130869;-52
2023/06/16 13:42:38;;;;;;;16.58;3.35;;;;;;;24.62;30.43;101635.47;16109722;19;129724;-49
2023/06/16 13:48:00;;;;;;;8.38;2.80;;;;;;;24.65;30.56;101639.69;16108968;19;130071;-49
2023/06/16 13:53:22;;;;;;;4.50;2.88;;;;;;;24.65;30.61;101636.88;16104206;19;129618;-52
2023/06/16 13:58:45;;;;;;;5.82;2.90;;;;;;;24.69;30.83;101632.44;16108354;19;130210;-53
2023/06/16 14:04:07;;;;;;;5.78;2.92;;;;;;;24.69;30.60;101630.47;16113415;19;130292;-50
2023/06/16 14:09:32;;;;;;;7.30;2.80;;;;;;;24.72;30.80;101615.13;16114304;19;129510;-46
2023/06/16 14:14:54;;;;;;;8.60;2.70;;;;;;;24.75;30.66;101610.91;16109841;19;129943;-48
2023/06/16 14:20:16;;;;;;;5.78;2.95;;;;;;;24.76;31.04;101607.84;16107866;19;130581;-47
2023/06/16 14:25:38;;;;;;;6.63;3.25;;;;;;;24.73;31.07;101608.41;16108258;19;130862;-47
2023/06/16 14:31:00;;;;;;;6.18;2.83;;;;;;;24.71;31.24;101611.44;16107319;19;129626;-48
2023/06/16 14:36:22;;;;;;;5.68;2.72;;;;;;;24.66;30.70;101602.19;16109865;19;130588;-50
2023/06/16 14:41:44;;;;;;;3.70;2.42;;;;;;;24.63;30.95;101595.19;16106188;19;130219;-51
2023/06/16 14:47:06;;;;;;;5.07;2.78;;;;;;;24.61;30.51;101593.78;16103425;19;130864;-49
2023/06/16 14:52:28;;;;;;;2.80;2.35;;;;;;;24.62;30.30;101592.66;16107299;19;134863;-51
2023/06/16 14:57:51;;;;;;;4.20;2.67;;;;;;;24.61;30.78;101591.00;16107000;19;129511;-48
2023/06/16 15:03:13;;;;;;;4.85;2.78;;;;;;;24.60;30.31;101586.50;16107991;19;130411;-52
2023/06/16 15:08:35;;;;;;;4.60;2.70;;;;;;;24.61;30.45;101582.59;16109199;19;130366;-50
2023/06/16 15:13:57;;;;;;;3.50;2.78;;;;;;;24.61;30.34;101582.59;16104566;19;129722;-49
2023/06/16 15:19:19;;;;;;;9.18;3.08;;;;;;;24.60;30.41;101578.94;16099737;19;129560;-48
2023/06/16 15:24:41;;;;;;;6.88;2.90;;;;;;;24.61;30.17;101572.25;16106098;19;129686;-49
2023/06/16 15:30:05;;;;;;;4.10;2.75;;;;;;;24.60;29.85;101576.16;16105553;19;130819;-48
2023/06/16 15:35:27;;;;;;;4.57;2.63;;;;;;;24.60;29.79;101566.94;16112231;19;131282;-48
2023/06/16 15:40:49;;;;;;;4.22;3.03;;;;;;;24.61;29.71;101571.41;16122050;19;131120;-47
2023/06/16 15:46:11;;;;;;;5.65;3.30;;;;;;;24.57;29.30;101571.09;16122716;19;129379;-47
2023/06/16 15:51:33;;;;;;;3.38;2.70;;;;;;;24.54;29.57;101571.66;16119836;19;136266;-51
2023/06/16 15:56:55;;;;;;;6.05;3.00;;;;;;;24.51;29.41;101561.81;16118778;19;130055;-54
2023/06/16 16:02:17;;;;;;;3.05;2.20;;;;;;;24.52;28.98;101562.69;16116621;19;129777;-52
2023/06/16 16:07:39;;;;;;;3.25;2.40;;;;;;;24.53;29.16;101562.41;16116759;19;129582;-54
2023/06/16 16:13:01;;;;;;;7.60;2.63;;;;;;;24.53;29.21;101548.41;16121170;19;130050;-54
2023/06/16 16:18:23;;;;;;;3.70;2.80;;;;;;;24.56;29.77;101550.69;16120506;19;131278;-54
2023/06/16 16:23:45;;;;;;;3.50;2.50;;;;;;;24.57;29.63;101541.19;16116570;19;130061;-51
2023/06/16 16:29:08;;;;;;;4.00;2.55;;;;;;;24.61;30.17;101541.47;16117158;19;129885;-54
2023/06/16 16:34:30;;;;;;;5.05;2.85;;;;;;;24.63;29.81;101535.59;16117356;19;129689;-53
2023/06/16 16:39:52;;;;;;;3.88;2.85;;;;;;;24.66;30.10;101529.44;16116353;19;129694;-54
2023/06/16 16:45:14;;;;;;;4.05;2.65;;;;;;;24.64;29.57;101528.88;16113552;19;130652;-52
2023/06/16 16:50:37;;;;;;;5.15;2.40;;;;;;;24.65;29.80;101524.97;16110532;19;131055;-53
2023/06/16 16:55:59;;;;;;;6.32;3.00;;;;;;;24.65;29.33;101525.81;16113064;19;131128;-53
2023/06/16 17:01:21;;;;;;;2.85;2.60;;;;;;;24.65;29.64;101533.38;16109609;19;130808;-55
2023/06/16 17:06:43;;;;;;;4.72;2.75;;;;;;;24.66;29.45;101523.84;16114066;19;131331;-52
2023/06/16 17:12:06;;;;;;;4.38;2.80;;;;;;;24.66;29.71;101524.72;16113836;19;130115;-54
2023/06/16 17:17:28;;;;;;;3.97;2.60;;;;;;;24.68;29.65;101527.22;16114215;19;129478;-53
2023/06/16 17:22:50;;;;;;;4.45;2.80;;;;;;;24.67;29.34;101520.81;16103640;19;130394;-49
2023/06/16 17:28:15;;;;;;;3.20;2.70;;;;;;;24.68;29.36;101527.22;16111600;19;129458;-46
2023/06/16 17:33:37;;;;;;;5.33;2.70;;;;;;;24.68;28.92;101519.66;16108951;19;129307;-48
2023/06/16 17:38:59;;;;;;;4.20;2.90;;;;;;;24.69;29.55;101531.72;16108715;19;130787;-45
2023/06/16 17:44:22;;;;;;;4.00;2.72;;;;;;;24.68;29.49;101532.81;16109592;19;130504;-45
2023/06/16 17:49:44;;;;;;;5.07;3.15;;;;;;;24.69;29.37;101529.75;16108973;19;130264;-49
2023/06/16 17:55:07;;;;;;;3.05;2.60;;;;;;;24.69;29.48;101526.13;16104038;19;130360;-48
2023/06/16 18:00:29;;;;;;;3.63;2.60;;;;;;;24.67;29.27;101526.41;16109818;19;130172;-47
2023/06/16 18:05:51;;;;;;;5.00;2.88;;;;;;;24.66;29.49;101527.50;16110471;19;131622;-51
2023/06/16 18:11:13;;;;;;;7.25;2.60;;;;;;;24.65;29.20;101530.56;16110880;19;132662;-48
2023/06/16 18:16:35;;;;;;;4.30;2.53;;;;;;;24.63;29.32;101527.19;16108377;19;130015;-46
2023/06/16 18:21:57;;;;;;;6.55;2.70;;;;;;;24.62;29.55;101525.50;16106718;19;130405;-45
2023/06/16 18:27:19;;;;;;;3.10;2.53;;;;;;;24.58;29.69;101523.28;16106357;19;129447;-45
2023/06/16 18:32:41;;;;;;;3.83;2.63;;;;;;;24.60;29.38;101519.38;16110651;19;129603;-46
2023/06/16 18:38:03;;;;;;;16.63;3.35;;;;;;;24.59;29.27;101524.09;16108660;19;131051;-47
2023/06/16 18:43:25;;;;;;;11.52;3.30;;;;;;;24.60;29.38;101525.78;16103433;19;131134;-46
2023/06/16 18:48:49;;;;;;;9.98;3.10;;;;;;;24.62;29.27;101531.09;16110349;19;130030;-46
2023/06/16 18:54:10;;;;;;;12.45;3.22;;;;;;;24.61;29.13;101523.84;16110750;19;131300;-48
2023/06/16 18:59:32;;;;;;;6.63;2.42;;;;;;;24.62;29.57;101526.38;16110383;19;129568;-45
2023/06/16 19:04:55;;;;;;;8.70;2.50;;;;;;;24.62;29.53;101528.31;16107300;19;130989;-50
2023/06/16 19:10:19;;;;;;;9.27;3.13;;;;;;;24.63;29.58;101536.44;16110098;19;130193;-46
2023/06/16 19:15:41;;;;;;;5.82;2.63;;;;;;;24.63;29.81;101536.44;16124788;19;129935;-46
2023/06/16 19:21:03;;;;;;;6.88;3.30;;;;;;;24.63;29.47;101541.19;16119691;19;130508;-47
2023/06/16 19:26:26;;;;;;;9.43;3.00;;;;;;;24.64;29.72;101546.53;16123145;19;130691;-46
2023/06/16 19:31:49;;;;;;;13.02;3.10;;;;;;;24.64;29.96;101542.88;16118208;19;130553;-47
2023/06/16 19:37:11;;;;;;;6.53;2.47;;;;;;;24.64;29.96;101546.53;16124132;19;129807;-48
2023/06/16 19:42:33;;;;;;;6.75;3.10;;;;;;;24.65;30.02;101551.00;16118070;19;129325;-46
2023/06/16 19:47:55;;;;;;;7.28;2.92;;;;;;;24.66;30.09;101563.03;16119185;19;129615;-48
2023/06/16 19:53:17;;;;;;;8.93;2.80;;;;;;;24.65;30.06;101564.13;16118787;19;130613;-47
2023/06/16 19:58:39;;;;;;;4.82;2.47;;;;;;;24.65;30.08;101572.53;16116541;19;130307;-48
2023/06/16 20:04:01;;;;;;;14.20;3.20;;;;;;;24.64;30.17;101576.44;16112286;19;130515;-47
2023/06/16 20:09:24;;;;;;;14.95;3.70;;;;;;;24.64;29.87;101582.03;16118455;19;129941;-48
2023/06/16 20:14:46;;;;;;;11.38;3.13;;;;;;;24.64;30.25;101588.50;16119005;19;130608;-47
2023/06/16 20:20:09;;;;;;;13.57;3.40;;;;;;;24.64;30.22;101594.09;16117900;19;131948;-48
2023/06/16 20:25:31;;;;;;;15.68;3.30;;;;;;;24.66;30.71;101593.81;16117680;19;130423;-47
2023/06/16 20:30:53;;;;;;;16.48;3.00;;;;;;;24.67;30.53;101599.16;16115522;19;132233;-48
2023/06/16 20:36:15;;;;;;;9.45;3.20;;;;;;;24.67;30.76;101603.88;16115279;19;131675;-45
2023/06/16 20:41:38;;;;;;;9.57;3.42;;;;;;;24.69;30.68;101604.44;16114669;19;131015;-46
2023/06/16 20:47:00;;;;;;;9.35;3.50;;;;;;;24.68;30.84;101606.41;16113485;19;129695;-51
2023/06/16 20:52:22;;;;;;;12.82;3.08;;;;;;;24.68;31.04;101605.56;16115721;19;130289;-47
2023/06/16 20:57:44;;;;;;;12.55;3.30;;;;;;;24.68;31.39;101611.16;16114397;19;129569;-47
2023/06/16 21:03:09;;;;;;;15.55;3.05;;;;;;;24.68;31.13;101613.97;16114203;19;129449;-48
2023/06/16 21:08:32;;;;;;;11.68;3.30;;;;;;;24.68;31.23;101616.75;16113602;19;129594;-48
2023/06/16 21:13:54;;;;;;;16.95;3.20;;;;;;;24.66;31.47;101618.97;16112781;19;131420;-47
2023/06/16 21:19:18;;;;;;;12.70;3.30;;;;;;;24.65;31.36;101628.47;16116284;19;129629;-47
2023/06/16 21:24:46;;;;;;;15.90;3.28;;;;;;;24.61;31.33;101627.38;16105785;19;131525;-47
2023/06/16 21:30:09;;;;;;;11.23;2.83;;;;;;;24.57;31.42;101627.03;16109512;19;131675;-47
2023/06/16 21:35:31;;;;;;;9.55;3.53;;;;;;;24.52;31.84;101625.06;16111932;19;131542;-46
2023/06/16 21:40:53;;;;;;;9.23;2.95;;;;;;;24.48;32.68;101623.94;16105916;19;131636;-45
2023/06/16 21:46:15;;;;;;;10.48;2.88;;;;;;;24.45;33.27;101624.47;16111657;19;131115;-46
2023/06/16 21:51:37;;;;;;;9.82;3.60;;;;;;;24.42;33.67;101625.00;16111190;19;129684;-46
2023/06/16 21:56:59;;;;;;;8.93;2.72;;;;;;;24.40;34.09;101621.63;16106502;19;130327;-49
2023/06/16 22:02:21;;;;;;;8.15;2.95;;;;;;;24.36;34.15;101620.50;16114156;19;130845;-45
2023/06/16 22:07:45;;;;;;;8.45;2.78;;;;;;;24.35;34.46;101624.41;16107878;19;129612;-44
2023/06/16 22:13:07;;;;;;;7.63;2.83;;;;;;;24.33;35.10;101626.63;16109043;19;129488;-45
2023/06/16 22:18:29;;;;;;;6.32;2.97;;;;;;;24.33;35.12;101626.63;16108272;19;134956;-46
2023/06/16 22:23:51;;;;;;;9.23;3.20;;;;;;;24.30;35.38;101622.41;16105807;19;130449;-46
2023/06/16 22:29:13;;;;;;;5.78;2.78;;;;;;;24.29;35.91;101626.31;16110934;19;130136;-45
2023/06/16 22:34:35;;;;;;;10.52;2.90;;;;;;;24.27;35.74;101612.59;16106168;19;129337;-49
2023/06/16 22:39:57;;;;;;;4.30;2.30;;;;;;;24.26;35.99;101613.69;16107921;19;131594;-49
2023/06/16 22:45:19;;;;;;;5.63;2.22;;;;;;;24.24;36.34;101607.56;16106780;19;131431;-48
2023/06/16 22:50:45;;;;;;;6.03;2.55;;;;;;;24.23;36.09;101611.41;16121770;19;130481;-46
2023/06/16 22:56:06;;;;;;;8.07;2.58;;;;;;;24.22;36.38;101611.66;16123003;19;129196;-46
2023/06/16 23:01:28;;;;;;;6.65;2.80;;;;;;;24.20;36.42;101600.75;16121995;19;132113;-44
2023/06/16 23:06:50;;;;;;;6.10;2.60;;;;;;;24.20;36.44;101606.34;16120167;19;129989;-47
2023/06/16 23:12:12;;;;;;;6.00;2.85;;;;;;;24.19;36.89;101601.00;16122809;19;129438;-48
2023/06/16 23:17:34;;;;;;;3.78;2.65;;;;;;;24.18;36.85;101600.19;16119675;19;131188;-48
2023/06/16 23:22:57;;;;;;;6.55;2.55;;;;;;;24.16;36.79;101594.00;16120425;19;131239;-48
2023/06/16 23:28:19;;;;;;;3.97;2.38;;;;;;;24.16;36.98;101588.44;16115205;19;130327;-46
2023/06/16 23:33:42;;;;;;;7.05;2.40;;;;;;;24.15;37.17;101580.31;16119962;19;129973;-47
2023/06/16 23:39:08;;;;;;;4.82;2.70;;;;;;;24.15;36.98;101586.75;16118270;19;130861;-50
2023/06/16 23:44:33;;;;;;;5.53;2.40;;;;;;;24.15;36.98;101589.53;16118265;19;130492;-47
2023/06/16 23:49:55;;;;;;;4.10;2.07;;;;;;;24.14;37.19;101578.63;16117664;19;129361;-48
2023/06/16 23:55:16;;;;;;;4.65;2.15;;;;;;;24.15;36.92;101581.16;16117901;19;130693;-47
